Time;durP1;ratioP1;P1;durP2;ratioP2;P2;SDS_P1;SDS_P2;PMS_P1;PMS_P2;Temp;Humidity;BMP_temperature;BMP_pressure;BME280_temperature;BME280_humidity;BME280_pressure;Samples;Min_cycle;Max_cycle;Signal;HPM_P1;HPM_P2
2022/06/03 00:00:06;;;;;;;;;;;21.50;99.90;21.50;99375.00;;;;328833;29;86320;-85
2022/06/03 00:00:25;;;;;;;;;;;21.60;99.90;21.60;99373.00;;;;330279;29;83600;-85
2022/06/03 00:00:49;;;;;;;;;;;21.60;99.90;21.60;99374.00;;;;328647;29;86608;-85
2022/06/03 00:01:09;;;;;;;;;;;21.50;99.90;21.60;99375.00;;;;327842;29;82532;-85
2022/06/03 00:01:33;;;;;;;;;;;21.50;99.90;21.60;99371.00;;;;328283;29;88013;-85
2022/06/03 00:02:09;;;;;;;;;;;21.50;99.90;21.60;99376.00;;;;330157;29;83733;-85
2022/06/03 00:02:39;;;;;;;;;;;21.50;99.90;21.60;99373.00;;;;326988;29;87631;-85
2022/06/03 00:03:13;;;;;;;;;;;21.50;99.90;21.50;99369.00;;;;327783;29;83405;-86
2022/06/03 00:03:46;;;;;;;;;;;21.50;99.90;21.60;99372.00;;;;327521;29;86403;-85
2022/06/03 00:04:16;;;;;;;;;;;21.50;99.90;21.60;99376.00;;;;327682;29;82449;-85
2022/06/03 00:04:52;;;;;;;;;;;21.50;99.90;21.60;99378.00;;;;329751;29;86456;-85
2022/06/03 00:05:22;;;;;;;;;;;21.50;99.90;21.60;99371.00;;;;330362;29;83305;-85
2022/06/03 00:06:11;;;;;;;;;;;21.50;99.90;21.70;99385.00;;;;330137;29;87282;-85
2022/06/03 00:06:29;;;;;;;;;;;21.50;99.90;21.70;99372.00;;;;328980;29;83386;-85
2022/06/03 00:07:05;;;;;;;;;;;21.50;99.90;21.80;99375.00;;;;328901;29;86330;-85
2022/06/03 00:07:54;;;;;;;;;;;21.60;99.90;21.80;99379.00;;;;328238;29;83576;-85
2022/06/03 00:08:28;;;;;;;;;;;21.60;99.90;21.70;99373.00;;;;327595;29;86215;-85
2022/06/03 00:09:00;;;;;;;;;;;21.60;99.90;21.70;99374.00;;;;327583;29;83516;-85
2022/06/03 00:09:27;;;;;;;;;;;21.60;99.90;21.80;99372.00;;;;325185;29;87010;-85
2022/06/03 00:09:58;;;;;;;;;;;21.60;99.90;21.60;99379.00;;;;327552;29;83555;-85
2022/06/03 00:10:35;;;;;;;;;;;21.60;99.90;21.70;99360.00;;;;327595;29;86248;-85
2022/06/03 00:11:12;;;;;;;;;;;21.50;99.90;21.60;99363.00;;;;328877;29;83557;-85
2022/06/03 00:11:50;;;;;;;;;;;21.50;99.90;21.60;99369.00;;;;327943;29;86213;-85
2022/06/03 00:12:11;;;;;;;;;;;21.50;99.90;21.50;99370.00;;;;328833;29;83414;-85
2022/06/03 00:12:43;;;;;;;;;;;21.50;99.90;21.70;99380.00;;;;328977;29;87132;-85
2022/06/03 00:12:58;;;;;;;;;;;21.50;99.90;21.60;99364.00;;;;327743;29;83447;-85
2022/06/03 00:13:13;;;;;;;;;;;21.50;99.90;21.60;99373.00;;;;330145;29;87465;-85
2022/06/03 00:13:55;;;;;;;;;;;21.50;99.90;21.50;99372.00;;;;331242;29;83514;-85
2022/06/03 00:14:30;;;;;;;;;;;21.50;99.90;21.30;99376.00;;;;330010;29;87587;-85
2022/06/03 00:14:48;;;;;;;;;;;21.50;99.90;21.20;99373.00;;;;331388;29;82424;-85
2022/06/03 00:15:11;;;;;;;;;;;21.40;99.90;21.20;99377.00;;;;328976;29;84249;-85
2022/06/03 00:15:38;;;;;;;;;;;21.40;99.90;21.20;99377.00;;;;327609;29;83417;-85
2022/06/03 00:16:12;;;;;;;;;;;21.40;99.90;21.30;99383.00;;;;327727;29;83867;-85
2022/06/03 00:16:39;;;;;;;;;;;21.40;99.90;21.30;99374.00;;;;331022;29;82744;-85
2022/06/03 00:17:13;;;;;;;;;;;21.40;99.90;21.30;99377.00;;;;331827;29;86457;-85
2022/06/03 00:17:43;;;;;;;;;;;21.40;99.90;21.40;99375.00;;;;330420;29;83492;-85
2022/06/03 00:18:16;;;;;;;;;;;21.30;99.90;21.30;99378.00;;;;328671;29;86472;-85
2022/06/03 00:19:04;;;;;;;;;;;21.30;99.90;21.30;99372.00;;;;328931;29;82606;-85
2022/06/03 00:19:23;;;;;;;;;;;21.20;99.90;21.30;99375.00;;;;326068;29;86142;-85
2022/06/03 00:19:40;;;;;;;;;;;21.30;99.90;21.30;99375.00;;;;322807;30;83685;-85
2022/06/03 00:20:08;;;;;;;;;;;21.30;99.90;21.30;99378.00;;;;322699;30;86478;-85
2022/06/03 00:20:21;;;;;;;;;;;21.30;99.90;21.30;99376.00;;;;325248;29;82506;-85
2022/06/03 00:21:02;;;;;;;;;;;21.20;99.90;21.40;99374.00;;;;323922;30;87042;-85
2022/06/03 00:21:19;;;;;;;;;;;21.20;99.90;21.40;99368.00;;;;325215;29;83517;-85
2022/06/03 00:21:45;;;;;;;;;;;21.20;99.90;21.40;99373.00;;;;323951;30;86517;-85
2022/06/03 00:22:01;;;;;;;;;;;21.30;99.90;21.40;99379.00;;;;323831;30;83550;-85
2022/06/03 00:22:28;;;;;;;;;;;21.30;99.90;21.50;99371.00;;;;327581;29;85683;-85
2022/06/03 00:22:57;;;;;;;;;;;21.30;99.90;21.30;99382.00;;;;325025;29;82648;-85
2022/06/03 00:23:41;;;;;;;;;;;21.30;99.90;21.30;99376.00;;;;323996;30;85713;-85
2022/06/03 00:23:59;;;;;;;;;;;21.30;99.90;21.30;99377.00;;;;331411;29;83445;-85
2022/06/03 00:24:17;;;;;;;;;;;21.30;99.90;21.30;99379.00;;;;331470;29;87686;-85
2022/06/03 00:24:45;;;;;;;;;;;21.20;99.90;21.30;99379.00;;;;329012;29;83478;-85
2022/06/03 00:25:07;;;;;;;;;;;21.30;99.90;21.30;99376.00;;;;332478;29;86439;-85
2022/06/03 00:25:34;;;;;;;;;;;21.30;99.90;21.30;99377.00;;;;332776;29;83518;-85
2022/06/03 00:26:08;;;;;;;;;;;21.30;99.90;21.30;99384.00;;;;331264;29;86541;-85
2022/06/03 00:26:34;;;;;;;;;;;21.20;99.90;21.30;99376.00;;;;330093;29;83548;-85
2022/06/03 00:26:59;;;;;;;;;;;21.20;99.90;21.30;99385.00;;;;330073;29;87135;-85
2022/06/03 00:27:20;;;;;;;;;;;21.20;99.90;21.30;99380.00;;;;330137;29;82587;-85
2022/06/03 00:28:11;;;;;;;;;;;21.20;99.90;21.40;99377.00;;;;332535;29;86453;-84
2022/06/03 00:28:30;;;;;;;;;;;21.20;99.90;21.40;99373.00;;;;328487;29;82848;-85
2022/06/03 00:29:14;;;;;;;;;;;21.20;99.90;21.30;99384.00;;;;327544;29;86296;-85
2022/06/03 00:29:44;;;;;;;;;;;21.30;99.90;21.30;99376.00;;;;331377;29;83566;-85
2022/06/03 00:29:58;;;;;;;;;;;21.20;99.90;21.30;99380.00;;;;331351;29;87504;-85
2022/06/03 00:30:34;;;;;;;;;;;21.20;99.90;21.30;99374.00;;;;333158;29;82493;-85
2022/06/03 00:30:55;;;;;;;;;;;21.20;99.90;21.30;99370.00;;;;335187;29;85121;-85
2022/06/03 00:31:29;;;;;;;;;;;21.20;99.90;21.30;99381.00;;;;334175;29;82536;-85
2022/06/03 00:32:04;;;;;;;;;;;21.20;99.90;21.20;99372.00;;;;332633;29;86554;-85
2022/06/03 00:32:30;;;;;;;;;;;21.20;99.90;21.20;99369.00;;;;333875;29;82371;-85
2022/06/03 00:33:07;;;;;;;;;;;21.20;99.90;21.10;99378.00;;;;332684;29;86494;-85
2022/06/03 00:33:22;;;;;;;;;;;21.20;99.90;21.20;99371.00;;;;331197;29;83345;-85
2022/06/03 00:33:49;;;;;;;;;;;21.20;99.90;21.20;99371.00;;;;334064;29;87212;-85
2022/06/03 00:34:14;;;;;;;;;;;21.10;99.90;21.20;99374.00;;;;336562;28;82598;-85
2022/06/03 00:34:54;;;;;;;;;;;21.20;99.90;21.30;99373.00;;;;338807;28;85604;-85
2022/06/03 00:35:31;;;;;;;;;;;21.10;99.90;21.40;99376.00;;;;338068;28;82466;-85
2022/06/03 00:35:51;;;;;;;;;;;21.20;99.90;21.50;99367.00;;;;337898;28;87341;-85
2022/06/03 00:36:17;;;;;;;;;;;21.20;99.90;21.50;99373.00;;;;336559;28;83593;-85
2022/06/03 00:36:45;;;;;;;;;;;21.20;99.90;21.40;99375.00;;;;335212;29;86388;-85
2022/06/03 00:37:16;;;;;;;;;;;21.30;99.90;21.40;99374.00;;;;336727;28;83816;-85
2022/06/03 00:37:40;;;;;;;;;;;21.20;99.90;21.50;99368.00;;;;337336;28;87412;-85
2022/06/03 00:38:33;;;;;;;;;;;21.30;99.90;21.50;99372.00;;;;338746;28;82545;-85
2022/06/03 00:39:13;;;;;;;;;;;21.30;99.90;21.40;99373.00;;;;333812;29;84860;-85
2022/06/03 00:39:59;;;;;;;;;;;21.30;99.90;21.40;99384.00;;;;334099;29;83514;-85
2022/06/03 00:40:45;;;;;;;;;;;21.30;99.90;21.40;99380.00;;;;333707;29;86686;-85
2022/06/03 00:41:11;;;;;;;;;;;21.30;99.90;21.40;99379.00;;;;335423;29;82392;-85
2022/06/03 00:41:43;;;;;;;;;;;21.30;99.90;21.30;99379.00;;;;334027;29;86317;-85
2022/06/03 00:42:11;;;;;;;;;;;21.30;99.90;21.30;99375.00;;;;333840;29;83536;-85
2022/06/03 00:43:04;;;;;;;;;;;21.20;99.90;21.30;99372.00;;;;333834;29;86215;-85
2022/06/03 00:43:42;;;;;;;;;;;21.20;99.90;21.30;99381.00;;;;329830;29;82754;-85
2022/06/03 00:43:58;;;;;;;;;;;21.30;99.90;21.30;99373.00;;;;329698;29;86923;-85
2022/06/03 00:44:30;;;;;;;;;;;21.20;99.90;21.30;99366.00;;;;330321;29;83474;-85
2022/06/03 00:44:53;;;;;;;;;;;21.20;99.90;21.30;99373.00;;;;328748;29;85640;-85
2022/06/03 00:45:15;;;;;;;;;;;21.20;99.90;21.30;99372.00;;;;327760;29;82540;-85
2022/06/03 00:45:54;;;;;;;;;;;21.20;99.90;21.20;99370.00;;;;330160;29;85382;-85
2022/06/03 00:46:18;;;;;;;;;;;21.20;99.90;21.20;99377.00;;;;330231;29;82547;-85
2022/06/03 00:46:56;;;;;;;;;;;21.20;99.90;21.20;99368.00;;;;330016;29;86789;-85
2022/06/03 00:47:15;;;;;;;;;;;21.20;99.90;21.20;99375.00;;;;330150;29;82546;-85
2022/06/03 00:47:53;;;;;;;;;;;21.20;99.90;21.20;99372.00;;;;331295;29;87302;-85
2022/06/03 00:48:16;;;;;;;;;;;21.20;99.90;21.20;99367.00;;;;330196;29;83341;-85
2022/06/03 00:48:50;;;;;;;;;;;21.20;99.90;21.30;99372.00;;;;330188;29;85141;-85
2022/06/03 00:49:09;;;;;;;;;;;21.20;99.90;21.30;99371.00;;;;330295;29;83445;-85
2022/06/03 00:49:48;;;;;;;;;;;21.20;99.90;21.30;99370.00;;;;328364;29;86782;-85
2022/06/03 00:50:24;;;;;;;;;;;21.20;99.90;21.40;99374.00;;;;330096;29;83557;-85
2022/06/03 00:51:01;;;;;;;;;;;21.20;99.90;21.40;99376.00;;;;329947;29;85176;-85
2022/06/03 00:51:30;;;;;;;;;;;21.20;99.90;21.30;99367.00;;;;328934;29;82557;-85
2022/06/03 00:51:57;;;;;;;;;;;21.20;99.90;21.30;99363.00;;;;331349;29;86976;-85
2022/06/03 00:52:30;;;;;;;;;;;21.20;99.90;21.30;99366.00;;;;330330;29;82703;-85
2022/06/03 00:52:54;;;;;;;;;;;21.20;99.90;21.30;99370.00;;;;330061;29;86802;-85
2022/06/03 00:53:29;;;;;;;;;;;21.20;99.90;21.30;99372.00;;;;330261;29;83570;-85
2022/06/03 00:53:55;;;;;;;;;;;21.20;99.90;21.30;99370.00;;;;331379;29;85507;-85
2022/06/03 00:54:14;;;;;;;;;;;21.20;99.90;21.30;99366.00;;;;328576;29;83416;-85
2022/06/03 00:54:36;;;;;;;;;;;21.20;99.90;21.30;99365.00;;;;331420;29;85534;-85
2022/06/03 00:55:10;;;;;;;;;;;21.20;99.90;21.30;99367.00;;;;330273;29;82636;-85
2022/06/03 00:55:26;;;;;;;;;;;21.20;99.90;21.30;99366.00;;;;329624;29;86180;-85
2022/06/03 00:55:46;;;;;;;;;;;21.20;99.90;21.30;99363.00;;;;331362;29;83487;-85
2022/06/03 00:56:27;;;;;;;;;;;21.20;99.90;21.20;99357.00;;;;331292;29;86542;-85
2022/06/03 00:56:56;;;;;;;;;;;21.20;99.90;21.20;99354.00;;;;332708;29;83448;-85
2022/06/03 00:57:25;;;;;;;;;;;21.20;99.90;21.20;99356.00;;;;330089;29;85937;-85
2022/06/03 00:57:54;;;;;;;;;;;21.20;99.90;21.20;99352.00;;;;330126;29;83477;-85
2022/06/03 00:58:44;;;;;;;;;;;21.10;99.90;21.10;99360.00;;;;332476;29;86570;-85
2022/06/03 00:58:59;;;;;;;;;;;21.10;99.90;21.10;99353.00;;;;334082;29;82513;-85
2022/06/03 00:59:14;;;;;;;;;;;21.10;99.90;21.10;99352.00;;;;333871;29;87414;-85
2022/06/03 00:59:34;;;;;;;;;;;21.10;99.90;21.10;99351.00;;;;332858;29;83612;-85
2022/06/03 01:00:07;;;;;;;;;;;21.10;99.90;21.10;99356.00;;;;332504;29;85323;-85
2022/06/03 01:00:24;;;;;;;;;;;21.10;99.90;21.10;99359.00;;;;332678;29;83259;-85
2022/06/03 01:00:46;;;;;;;;;;;21.10;99.90;21.10;99356.00;;;;331301;29;86006;-85
2022/06/03 01:01:09;;;;;;;;;;;21.10;99.90;21.10;99362.00;;;;332832;29;82430;-85
2022/06/03 01:01:23;;;;;;;;;;;21.10;99.90;21.10;99359.00;;;;331933;29;86264;-85
2022/06/03 01:02:18;;;;;;;;;;;21.10;99.90;21.20;99356.00;;;;332725;29;83536;-85
2022/06/03 01:02:36;;;;;;;;;;;21.10;99.90;21.10;99359.00;;;;332470;29;86711;-85
2022/06/03 01:03:08;;;;;;;;;;;21.10;99.90;21.20;99360.00;;;;333949;29;83363;-85
2022/06/03 01:03:28;;;;;;;;;;;21.10;99.90;21.20;99364.00;;;;331290;29;86318;-85
2022/06/03 01:03:58;;;;;;;;;;;21.10;99.90;21.20;99360.00;;;;331306;29;83329;-85
2022/06/03 01:04:51;;;;;;;;;;;21.10;99.90;21.20;99359.00;;;;332566;29;87890;-86
2022/06/03 01:05:21;;;;;;;;;;;21.10;99.90;21.20;99362.00;;;;331257;29;83457;-85
2022/06/03 01:05:50;;;;;;;;;;;21.10;99.90;21.20;99362.00;;;;332603;29;86607;-85
2022/06/03 01:06:15;;;;;;;;;;;21.10;99.90;21.20;99362.00;;;;332597;29;83430;-85
2022/06/03 01:06:53;;;;;;;;;;;21.10;99.90;21.20;99351.00;;;;331401;29;86811;-85
2022/06/03 01:07:28;;;;;;;;;;;21.10;99.90;21.20;99359.00;;;;332160;29;89271;-85
2022/06/03 01:08:21;;;;;;;;;;;21.10;99.90;21.30;99354.00;;;;353620;27;75649;-85
2022/06/03 01:08:55;;;;;;;;;;;21.10;99.90;21.30;99354.00;;;;351216;27;83264;-85
2022/06/03 01:09:17;;;;;;;;;;;21.10;99.90;21.20;99363.00;;;;351446;27;86093;-85
2022/06/03 01:09:57;;;;;;;;;;;21.10;99.90;21.20;99361.00;;;;351455;27;83364;-85
2022/06/03 01:10:12;;;;;;;;;;;21.10;99.90;21.20;99363.00;;;;349924;27;87544;-85
2022/06/03 01:10:45;;;;;;;;;;;21.10;99.90;21.30;99356.00;;;;349630;27;83475;-85
2022/06/03 01:11:18;;;;;;;;;;;21.10;99.90;21.30;99369.00;;;;348551;27;86012;-85
2022/06/03 01:12:00;;;;;;;;;;;21.10;99.90;21.30;99373.00;;;;348686;27;83336;-85
2022/06/03 01:12:27;;;;;;;;;;;21.10;99.90;21.30;99371.00;;;;349673;27;86338;-85
2022/06/03 01:13:12;;;;;;;;;;;21.20;99.90;21.30;99374.00;;;;348565;27;82326;-85
2022/06/03 01:13:39;;;;;;;;;;;21.10;99.90;21.30;99359.00;;;;347641;27;88168;-85
2022/06/03 01:14:03;;;;;;;;;;;21.20;99.90;21.30;99366.00;;;;345641;28;83511;-85
2022/06/03 01:14:33;;;;;;;;;;;21.20;99.90;21.30;99366.00;;;;346940;28;86327;-86
2022/06/03 01:15:22;;;;;;;;;;;21.10;99.90;21.20;99363.00;;;;348334;27;83434;-86
2022/06/03 01:16:06;;;;;;;;;;;21.10;99.90;21.30;99358.00;;;;348525;27;87245;-85
2022/06/03 01:16:42;;;;;;;;;;;21.10;99.90;21.20;99363.00;;;;347177;27;83343;-85
2022/06/03 01:17:21;;;;;;;;;;;21.10;99.90;21.20;99349.00;;;;347086;28;85838;-85
2022/06/03 01:17:38;;;;;;;;;;;21.10;99.90;21.10;99349.00;;;;348423;27;83367;-86
2022/06/03 01:18:13;;;;;;;;;;;21.10;99.90;21.10;99343.00;;;;348509;27;86994;-85
2022/06/03 01:18:29;;;;;;;;;;;21.10;99.90;21.00;99342.00;;;;346788;28;83006;-85
2022/06/03 01:19:20;;;;;;;;;;;21.10;99.90;20.90;99342.00;;;;348251;27;86442;-85
2022/06/03 01:19:46;;;;;;;;;;;21.10;99.90;21.00;99340.00;;;;349678;27;82492;-85
2022/06/03 01:20:14;;;;;;;;;;;21.00;99.90;21.10;99333.00;;;;351052;27;87500;-85
2022/06/03 01:20:33;;;;;;;;;;;21.00;99.90;21.00;99331.00;;;;348322;27;83389;-85
2022/06/03 01:21:06;;;;;;;;;;;21.00;99.90;20.90;99326.00;;;;348497;27;87420;-86
2022/06/03 01:21:42;;;;;;;;;;;21.00;99.90;20.90;99328.00;;;;349837;27;82417;-85
2022/06/03 01:21:59;;;;;;;;;;;21.00;99.90;21.10;99328.00;;;;347135;28;87236;-85
2022/06/03 01:22:32;;;;;;;;;;;21.00;99.90;21.20;99327.00;;;;347179;28;83324;-85
2022/06/03 01:22:49;;;;;;;;;;;21.00;99.90;21.00;99339.00;;;;345759;28;86121;-85
2022/06/03 01:23:30;;;;;;;;;;;21.00;99.90;20.90;99332.00;;;;347100;28;83372;-86
2022/06/03 01:23:47;;;;;;;;;;;21.00;99.90;21.00;99349.00;;;;342802;28;86251;-85
2022/06/03 01:24:05;;;;;;;;;;;21.00;99.90;21.00;99341.00;;;;342814;28;82418;-85
2022/06/03 01:24:44;;;;;;;;;;;21.00;99.90;21.00;99353.00;;;;344296;28;87168;-85
2022/06/03 01:25:11;;;;;;;;;;;21.00;99.90;20.90;99356.00;;;;343898;28;83521;-85
2022/06/03 01:25:57;;;;;;;;;;;21.00;99.90;20.90;99363.00;;;;345227;28;82460;-86
2022/06/03 01:26:15;;;;;;;;;;;20.90;99.90;20.70;99363.00;;;;348639;27;83284;-85
2022/06/03 01:26:54;;;;;;;;;;;20.90;99.90;20.60;99361.00;;;;345810;28;83731;-85
2022/06/03 01:27:09;;;;;;;;;;;20.90;99.90;20.60;99369.00;;;;343935;28;83566;-85
2022/06/03 01:27:44;;;;;;;;;;;20.80;99.90;20.60;99371.00;;;;344348;28;87008;-85
2022/06/03 01:28:24;;;;;;;;;;;20.80;99.90;20.60;99364.00;;;;344341;28;83457;-85
2022/06/03 01:29:06;;;;;;;;;;;20.70;99.90;20.60;99363.00;;;;345339;28;85222;-84
2022/06/03 01:29:49;;;;;;;;;;;20.70;99.90;20.70;99357.00;;;;345688;28;83520;-85
2022/06/03 01:30:21;;;;;;;;;;;20.70;99.90;20.80;99365.00;;;;342843;28;85081;-85
2022/06/03 01:31:00;;;;;;;;;;;20.70;99.90;20.80;99358.00;;;;343485;28;83422;-85
2022/06/03 01:31:33;;;;;;;;;;;20.70;99.90;20.80;99362.00;;;;344274;28;86677;-85
2022/06/03 01:32:12;;;;;;;;;;;20.70;99.90;20.80;99351.00;;;;344207;28;83168;-85
2022/06/03 01:32:26;;;;;;;;;;;20.70;99.90;20.80;99347.00;;;;343874;28;87295;-85
2022/06/03 01:33:15;;;;;;;;;;;20.70;99.90;20.90;99347.00;;;;342828;28;83424;-85
2022/06/03 01:34:02;;;;;;;;;;;20.70;99.90;20.80;99349.00;;;;344078;28;86766;-85
2022/06/03 01:34:40;;;;;;;;;;;20.70;99.90;20.80;99344.00;;;;342483;28;83424;-85
2022/06/03 01:35:04;;;;;;;;;;;20.70;99.90;20.80;99346.00;;;;342296;28;86945;-85
2022/06/03 01:35:27;;;;;;;;;;;20.70;99.90;20.80;99344.00;;;;344108;28;82383;-85
2022/06/03 01:36:09;;;;;;;;;;;20.70;99.90;20.80;99339.00;;;;341733;28;87179;-86
2022/06/03 01:36:44;;;;;;;;;;;20.70;99.90;20.80;99340.00;;;;342770;28;83364;-85
2022/06/03 01:36:55;;;;;;;;;;;20.70;99.90;20.80;99338.00;;;;340279;28;86050;-85
2022/06/03 01:37:44;;;;;;;;;;;20.70;99.90;20.80;99343.00;;;;342951;28;82341;-84
2022/06/03 01:38:14;;;;;;;;;;;20.70;99.90;20.80;99337.00;;;;336137;28;87103;-85
2022/06/03 01:39:10;;;;;;;;;;;20.70;99.90;20.80;99344.00;;;;343922;28;83581;-85
2022/06/03 01:39:30;;;;;;;;;;;20.70;99.90;20.80;99340.00;;;;341477;28;88175;-85
2022/06/03 01:39:42;;;;;;;;;;;20.70;99.90;20.80;99340.00;;;;341580;28;83527;-85
2022/06/03 01:40:15;;;;;;;;;;;20.70;99.90;20.90;99332.00;;;;342951;28;86511;-85
2022/06/03 01:40:47;;;;;;;;;;;20.70;99.90;20.90;99336.00;;;;342831;28;83508;-86
2022/06/03 01:41:36;;;;;;;;;;;20.70;99.90;20.90;99342.00;;;;343148;28;84656;-85
2022/06/03 01:42:19;;;;;;;;;;;20.80;99.90;20.80;99340.00;;;;341664;28;82396;-85
2022/06/03 01:42:40;;;;;;;;;;;20.70;99.90;20.80;99336.00;;;;341538;28;88123;-85
2022/06/03 01:43:13;;;;;;;;;;;20.70;99.90;20.90;99334.00;;;;342943;28;83265;-85
2022/06/03 01:43:25;;;;;;;;;;;20.80;99.90;20.90;99329.00;;;;341313;28;84766;-85
2022/06/03 01:43:39;;;;;;;;;;;20.80;99.90;20.90;99334.00;;;;341415;28;82633;-85
2022/06/03 01:44:26;;;;;;;;;;;20.80;99.90;20.70;99329.00;;;;342306;28;87387;-85
2022/06/03 01:45:04;;;;;;;;;;;20.80;99.90;20.70;99333.00;;;;340313;28;82421;-85
2022/06/03 01:45:44;;;;;;;;;;;20.80;99.90;20.80;99337.00;;;;341475;28;87283;-85
2022/06/03 01:46:22;;;;;;;;;;;20.70;99.90;20.80;99329.00;;;;342915;28;83531;-85
2022/06/03 01:46:53;;;;;;;;;;;20.70;99.90;20.80;99341.00;;;;339903;28;85495;-86
2022/06/03 01:47:35;;;;;;;;;;;20.70;99.90;20.80;99333.00;;;;340113;28;83427;-85
2022/06/03 01:48:02;;;;;;;;;;;20.70;99.90;21.00;99329.00;;;;341632;28;87182;-85
2022/06/03 01:48:26;;;;;;;;;;;20.80;99.90;21.00;99337.00;;;;342942;28;83352;-86
2022/06/03 01:48:56;;;;;;;;;;;20.80;99.90;20.90;99339.00;;;;344221;28;86820;-86
2022/06/03 01:49:41;;;;;;;;;;;20.80;99.90;20.90;99347.00;;;;343094;28;83338;-86
2022/06/03 01:50:24;;;;;;;;;;;20.80;99.90;20.90;99340.00;;;;342631;28;87771;-85
2022/06/03 01:50:57;;;;;;;;;;;20.80;99.90;20.90;99340.00;;;;340856;28;83587;-85
2022/06/03 01:51:14;;;;;;;;;;;20.80;99.90;21.00;99333.00;;;;342534;28;86417;-85
2022/06/03 01:51:40;;;;;;;;;;;20.80;99.90;21.00;99334.00;;;;341438;28;83407;-85
2022/06/03 01:52:18;;;;;;;;;;;20.80;99.90;20.90;99336.00;;;;341670;28;83661;-85
2022/06/03 01:52:52;;;;;;;;;;;20.80;99.90;21.00;99335.00;;;;337454;28;83432;-85
2022/06/03 01:53:13;;;;;;;;;;;20.80;99.90;20.90;99327.00;;;;341530;28;85483;-85
2022/06/03 01:54:06;;;;;;;;;;;20.80;99.90;21.10;99334.00;;;;340125;28;83522;-85
2022/06/03 01:54:57;;;;;;;;;;;20.80;99.90;21.00;99333.00;;;;336097;28;85524;-85
2022/06/03 01:55:43;;;;;;;;;;;20.90;99.90;21.10;99331.00;;;;335516;28;83383;-86
2022/06/03 01:56:32;;;;;;;;;;;20.90;99.90;21.00;99326.00;;;;353727;27;74898;-85
2022/06/03 01:57:25;;;;;;;;;;;20.90;99.90;21.00;99326.00;;;;351285;27;83538;-85
2022/06/03 01:57:43;;;;;;;;;;;20.90;99.90;21.10;99332.00;;;;345694;28;86328;-85
2022/06/03 01:58:22;;;;;;;;;;;20.90;99.90;21.00;99327.00;;;;345614;28;83718;-86
2022/06/03 01:58:52;;;;;;;;;;;20.90;99.90;21.00;99322.00;;;;344537;28;86493;-85
2022/06/03 01:59:09;;;;;;;;;;;20.90;99.90;21.00;99323.00;;;;347122;28;83377;-85
2022/06/03 01:59:24;;;;;;;;;;;20.90;99.90;21.10;99320.00;;;;346751;28;86015;-85
2022/06/03 01:59:53;;;;;;;;;;;20.90;99.90;20.90;99325.00;;;;345764;28;82546;-85
2022/06/03 02:00:22;;;;;;;;;;;20.90;99.90;21.00;99330.00;;;;346956;28;87707;-85
2022/06/03 02:00:38;;;;;;;;;;;20.90;99.90;20.80;99325.00;;;;346942;28;82370;-85
2022/06/03 02:01:27;;;;;;;;;;;20.90;99.90;20.80;99334.00;;;;347159;28;86176;-85
2022/06/03 02:02:07;;;;;;;;;;;20.90;99.90;20.70;99321.00;;;;345422;28;82534;-85
2022/06/03 02:02:48;;;;;;;;;;;20.80;99.90;20.70;99325.00;;;;346700;28;86220;-85
2022/06/03 02:03:05;;;;;;;;;;;20.80;99.90;20.70;99324.00;;;;345702;28;83487;-84
2022/06/03 02:03:17;;;;;;;;;;;20.70;99.90;20.70;99329.00;;;;347019;28;86183;-85
2022/06/03 02:04:05;;;;;;;;;;;20.70;99.90;20.70;99320.00;;;;347190;28;83221;-85
2022/06/03 02:04:32;;;;;;;;;;;20.70;99.90;20.80;99325.00;;;;346926;28;86629;-85
2022/06/03 02:05:10;;;;;;;;;;;20.70;99.90;20.80;99327.00;;;;342580;28;83360;-85
2022/06/03 02:05:40;;;;;;;;;;;20.70;99.90;20.90;99318.00;;;;344136;28;87068;-85
2022/06/03 02:06:29;;;;;;;;;;;20.80;99.90;20.80;99319.00;;;;345675;28;83472;-85
2022/06/03 02:07:00;;;;;;;;;;;20.80;99.90;20.80;99316.00;;;;346430;28;84410;-85
2022/06/03 02:07:37;;;;;;;;;;;20.70;99.90;20.90;99320.00;;;;345750;28;82505;-85
2022/06/03 02:07:52;;;;;;;;;;;20.70;99.90;20.90;99314.00;;;;344283;28;87288;-85
2022/06/03 02:08:04;;;;;;;;;;;20.80;99.90;20.90;99313.00;;;;344224;28;83309;-85
2022/06/03 02:08:31;;;;;;;;;;;20.70;99.90;20.90;99305.00;;;;342788;28;87120;-85
2022/06/03 02:09:02;;;;;;;;;;;20.80;99.90;20.80;99319.00;;;;344328;28;82541;-85
2022/06/03 02:09:23;;;;;;;;;;;20.80;99.90;20.90;99324.00;;;;344205;28;85303;-86
2022/06/03 02:10:05;;;;;;;;;;;20.80;99.90;20.90;99324.00;;;;344445;28;82389;-85
2022/06/03 02:10:39;;;;;;;;;;;20.80;99.90;21.10;99317.00;;;;343818;28;87208;-85
2022/06/03 02:11:15;;;;;;;;;;;20.80;99.90;20.90;99326.00;;;;348038;27;83585;-84
2022/06/03 02:11:54;;;;;;;;;;;20.80;99.90;20.90;99323.00;;;;347061;28;87062;-85
2022/06/03 02:12:09;;;;;;;;;;;20.80;99.90;20.90;99320.00;;;;348448;27;83495;-85
2022/06/03 02:12:44;;;;;;;;;;;20.80;99.90;20.90;99324.00;;;;345653;28;86998;-85
2022/06/03 02:13:30;;;;;;;;;;;20.80;99.90;20.90;99327.00;;;;344346;28;83738;-85
2022/06/03 02:13:45;;;;;;;;;;;20.80;99.90;20.90;99324.00;;;;344218;28;85179;-85
2022/06/03 02:14:16;;;;;;;;;;;20.80;99.90;20.90;99319.00;;;;342745;28;83227;-85
2022/06/03 02:14:58;;;;;;;;;;;20.80;99.90;20.90;99322.00;;;;346924;28;86640;-85
2022/06/03 02:15:34;;;;;;;;;;;20.80;99.90;20.90;99320.00;;;;345851;28;82296;-85
2022/06/03 02:16:03;;;;;;;;;;;20.80;99.90;20.80;99314.00;;;;344427;28;86562;-85
2022/06/03 02:16:37;;;;;;;;;;;20.80;99.90;20.90;99310.00;;;;344467;28;82592;-85
2022/06/03 02:17:26;;;;;;;;;;;20.80;99.90;20.80;99312.00;;;;344699;28;87939;-85
2022/06/03 02:17:55;;;;;;;;;;;20.80;99.90;20.80;99317.00;;;;345730;28;83397;-86
2022/06/03 02:18:35;;;;;;;;;;;20.80;99.90;20.80;99319.00;;;;345675;28;85738;-85
2022/06/03 02:18:52;;;;;;;;;;;20.80;99.90;20.80;99313.00;;;;345778;28;82411;-85
2022/06/03 02:19:32;;;;;;;;;;;20.80;99.90;20.80;99308.00;;;;345631;28;87378;-85
2022/06/03 02:20:08;;;;;;;;;;;20.80;99.90;20.90;99312.00;;;;347163;28;83501;-85
2022/06/03 02:20:47;;;;;;;;;;;20.70;99.90;20.90;99308.00;;;;348925;27;86974;-85
2022/06/03 02:21:09;;;;;;;;;;;20.80;99.90;20.90;99308.00;;;;349717;27;83553;-85
2022/06/03 02:21:20;;;;;;;;;;;20.80;99.90;20.80;99306.00;;;;346892;28;87355;-85
2022/06/03 02:22:03;;;;;;;;;;;20.80;99.90;20.80;99316.00;;;;348372;27;82612;-85
2022/06/03 02:22:30;;;;;;;;;;;20.70;99.90;20.90;99314.00;;;;346442;28;87088;-85
2022/06/03 02:23:00;;;;;;;;;;;20.80;99.90;20.90;99310.00;;;;345528;28;83319;-85
2022/06/03 02:23:53;;;;;;;;;;;20.80;99.90;21.00;99315.00;;;;344256;28;87368;-85
2022/06/03 02:24:24;;;;;;;;;;;20.80;99.90;20.90;99318.00;;;;345765;28;83338;-85
2022/06/03 02:25:14;;;;;;;;;;;20.80;99.90;20.80;99321.00;;;;348386;27;87607;-85
2022/06/03 02:25:59;;;;;;;;;;;20.80;99.90;20.70;99319.00;;;;346838;28;82591;-85
2022/06/03 02:26:25;;;;;;;;;;;20.80;99.90;20.70;99314.00;;;;345780;28;86261;-85
2022/06/03 02:27:18;;;;;;;;;;;20.70;99.90;20.80;99323.00;;;;345641;28;83384;-85
2022/06/03 02:27:52;;;;;;;;;;;20.80;99.90;20.80;99318.00;;;;347066;28;87013;-85
2022/06/03 02:28:22;;;;;;;;;;;20.70;99.90;20.90;99316.00;;;;347127;28;83584;-85
2022/06/03 02:30:24;;;;;;;;;;;20.70;99.90;20.90;99318.00;;;;347187;27;87213;-85
2022/06/03 02:31:03;;;;;;;;;;;20.80;99.90;20.70;99316.00;;;;345715;28;83759;-84
2022/06/03 02:31:36;;;;;;;;;;;20.80;99.90;20.70;99312.00;;;;344023;28;83394;-85
2022/06/03 02:32:28;;;;;;;;;;;20.70;99.90;20.80;99315.00;;;;341664;28;83888;-85
2022/06/03 02:33:11;;;;;;;;;;;20.70;99.90;20.80;99313.00;;;;337428;28;82582;-85
2022/06/03 02:33:33;;;;;;;;;;;20.70;99.90;20.80;99312.00;;;;338716;28;84948;-85
2022/06/03 02:33:57;;;;;;;;;;;20.70;99.90;20.80;99314.00;;;;341045;28;82341;-85
2022/06/03 02:34:28;;;;;;;;;;;20.70;99.90;20.80;99313.00;;;;341635;28;83408;-85
2022/06/03 02:35:04;;;;;;;;;;;20.70;99.90;20.80;99309.00;;;;341586;28;83357;-85
2022/06/03 02:35:34;;;;;;;;;;;20.70;99.90;20.80;99315.00;;;;344283;28;86132;-85
2022/06/03 02:35:46;;;;;;;;;;;20.70;99.90;20.70;99319.00;;;;347183;28;82393;-85